Flight Track Log - Related Links

Times and Time Zones

All times are in EDT time to prevent confusion due to time zone crossing. See the AWE1940 flight status page for this flight to view local times or setup timezone preferences in your user account.

Time Position Orientation Groundspeed Altitude Reporting Facility
EDT Latitude Longitude Course Direction KTS MPH feet Rate Location/Type
Tue 06:40:15 PM 29.9594 -95.3414 90° East 175 201 800  Level Houston Center
Tue 06:41:05 PM 29.9444 -95.2925 109° East 225 259 2,200 1,730 Climbing Houston Center
Tue 06:42:06 PM 29.9392 -95.2114 94° East 282 325 4,000 1,707 Climbing Houston Center
Tue 06:43:00 PM 29.9834 -94.8306 90° East  Level FlightAware Approximate
Tue 06:43:08 PM 29.9458 -95.1261 85° East 272 313 5,700  Level Houston Center
Tue 06:44:00 PM 29.9834 -94.7049 90° East  Level FlightAware Approximate
Tue 06:44:09 PM 29.9536 -95.0311 85° East 276 318 8,600  Level Houston Center
Tue 06:45:00 PM 29.9833 -94.5792 90° East  Level FlightAware Approximate
Tue 06:45:23 PM 29.9619 -94.9264 85° East 300 345 10,800  Level Houston Center
Tue 06:46:25 PM 29.9697 -94.8097 86° East 359 413 12,600 2,516 Climbing Houston Center
Tue 06:47:27 PM 29.9817 -94.6625 85° East 380 437 16,000 2,806 Climbing Houston Center
Tue 06:48:29 PM 29.9900 -94.5389 86° East 384 442 18,400 2,081 Climbing Houston Center
Tue 06:49:31 PM 29.9933 -94.3964 88° East 402 463 20,300 1,790 Climbing Houston Center
Tue 06:50:33 PM 30.0006 -94.2606 86° East 419 482 22,100 1,645 Climbing Houston Center
Tue 06:51:35 PM 30.0200 -94.1211 81° East 436 502 23,700 1,645 Climbing Houston Center
Tue 06:52:37 PM 30.0367 -93.9781 82° East 448 516 25,500 1,500 Climbing Houston Center
Tue 06:53:39 PM 30.0539 -93.8336 82° East 455 524 26,800 1,694 Climbing Houston Center
Tue 06:54:41 PM 30.0764 -93.6556 82° East 469 540 29,000 1,839 Climbing Houston Center
Tue 06:55:43 PM 30.0942 -93.5111 82° East 465 535 30,600 1,161 Climbing Houston Center
Tue 06:56:45 PM 30.1103 -93.3636 83° East 474 545 31,400 1,016 Climbing Houston Center
Tue 06:57:47 PM 30.1283 -93.2153 82° East 475 547 32,700 1,210 Climbing Houston Center
Tue 06:58:49 PM 30.1472 -93.0689 81° East 468 539 33,900 1,016 Climbing Houston Center
Tue 06:59:51 PM 30.1831 -92.8944 77° East 468 539 34,800 532 Climbing Houston Center
Tue 07:00:53 PM 30.2117 -92.7472 77° East 471 542 35,000 97 Climbing Houston Center
Tue 07:01:55 PM 30.2397 -92.6011 77° East 469 540 35,000  Level Houston Center
Tue 07:02:57 PM 30.2681 -92.4539 77° East 471 542 35,000  Level Houston Center
Tue 07:03:59 PM 30.2992 -92.2961 77° East 471 542 35,000  Level Houston Center
Tue 07:05:01 PM 30.3267 -92.1497 78° East 469 540 35,000  Level Houston Center
Tue 07:06:03 PM 30.3544 -92.0039 78° East 467 537 35,000  Level Houston Center
Tue 07:07:05 PM 30.3872 -91.8267 78° East 469 540 35,000  Level Houston Center
Tue 07:08:07 PM 30.4117 -91.6978 78° East 470 541 35,000  Level Houston Center
Tue 07:09:09 PM 30.4392 -91.5514 78° East 466 536 35,000 -48 Level Houston Center
Tue 07:10:11 PM 30.4708 -91.3756 78° East 467 537 34,900 -48 Descending Houston Center
Tue 07:11:13 PM 30.5000 -91.2308 77° East 464 534 34,900 48 Level Houston Center
Tue 07:12:15 PM 30.5344 -91.0858 75° East 465 535 35,000 48 Climbing Houston Center
Tue 07:13:17 PM 30.5667 -90.9419 75° East 462 532 35,000  Level Houston Center
Tue 07:14:19 PM 30.5997 -90.7978 75° East 463 533 35,000 -48 Level Houston Center
Tue 07:15:21 PM 30.6314 -90.6542 76° East 460 529 34,900  Descending Houston Center
Tue 07:16:23 PM 30.6697 -90.4825 75° East 457 526 35,000 48 Climbing Houston Center
Tue 07:17:25 PM 30.6894 -90.3369 81° East 458 527 35,000  Level Houston Center
Tue 07:18:27 PM 30.7092 -90.1925 81° East 452 520 35,000  Level Houston Center
Tue 07:19:29 PM 30.7289 -90.0475 81° East 452 520 35,000  Level Houston Center
Tue 07:20:31 PM 30.7500 -89.9036 80° East 450 518 35,000  Level Houston Center
Tue 07:21:33 PM 30.7711 -89.7611 80° East 446 513 35,000  Level Houston Center
Tue 07:22:35 PM 30.7922 -89.6181 80° East 446 513 35,000  Level Houston Center
Tue 07:23:36 PM 30.8122 -89.4758 81° East 444 511 35,000 -49 Level Houston Center
Tue 07:24:38 PM 30.8378 -89.3050 80° East 445 512 34,900  Descending Houston Center
Tue 07:25:40 PM 30.8603 -89.1600 80° East 454 522 35,000 48 Climbing Houston Center
Tue 07:26:42 PM 30.8858 -89.0189 78° East 446 513 35,000  Level Houston Center
Tue 07:27:44 PM 30.9247 -88.9000 69° East 446 513 35,000  Level Houston Center
Tue 07:28:46 PM 31.0031 -88.7469 59° Northeast 455 524 35,000  Level Houston Center
Tue 07:29:48 PM 31.0697 -88.6200 58° Northeast 457 526 35,000  Level Houston Center
Tue 07:30:50 PM 31.1297 -88.5064 58° Northeast 457 526 35,000  Level Houston Center
Tue 07:31:52 PM 31.2089 -88.3519 59° Northeast 463 533 35,000  Level Houston Center
Tue 07:32:54 PM 31.2725 -88.2294 59° Northeast 464 534 35,000  Level Houston Center
Tue 07:33:55 PM 31.3364 -88.0989 60° Northeast 460 529 35,000  Level Houston Center
Tue 07:34:57 PM 31.4019 -87.9697 59° Northeast 459 528 35,000  Level Houston Center
Tue 07:35:59 PM 31.4678 -87.8417 59° Northeast 459 528 35,000  Level Houston Center
Tue 07:37:01 PM 31.5317 -87.7139 60° Northeast 455 524 35,000  Level Houston Center
Tue 07:38:03 PM 31.6094 -87.5603 59° Northeast 457 526 35,000  Level Houston Center
Tue 07:38:24 PM 31.6306 -87.5289 52° Northeast 443 510 35,000  Level Atlanta Center
Tue 07:39:24 PM 31.6925 -87.3997 61° Northeast 443 510 35,000  Level Atlanta Center
Tue 07:40:24 PM 31.7589 -87.2581 61° Northeast 442 509 35,000  Level Atlanta Center
Tue 07:41:24 PM 31.8228 -87.1308 59° Northeast 442 509 35,000  Level Atlanta Center
Tue 07:42:24 PM 31.8864 -87.0008 60° Northeast 447 514 35,000  Level Atlanta Center
Tue 07:43:24 PM 31.9542 -86.8708 58° Northeast 453 521 35,000  Level Atlanta Center
Tue 07:44:24 PM 32.0175 -86.7406 60° Northeast 458 527 35,000  Level Atlanta Center
Tue 07:45:24 PM 32.0806 -86.6250 57° Northeast 458 527 35,000  Level Atlanta Center
Tue 07:46:24 PM 32.1417 -86.4917 62° Northeast 463 533 35,000  Level Atlanta Center
Tue 07:47:24 PM 32.2092 -86.3561 59° Northeast 450 518 35,000  Level Atlanta Center
Tue 07:48:24 PM 32.2928 -86.2356 51° Northeast 450 518 35,000  Level Atlanta Center
Tue 07:49:24 PM 32.3800 -86.1344 44° Northeast 447 514 35,000  Level Atlanta Center
Tue 07:50:24 PM 32.4736 -86.0283 44° Northeast 452 520 35,000  Level Atlanta Center
Tue 07:51:24 PM 32.5589 -85.9217 46° Northeast 462 532 35,000  Level Atlanta Center
Tue 07:52:24 PM 32.6419 -85.8075 49° Northeast 467 537 35,000  Level Atlanta Center
Tue 07:53:24 PM 32.7206 -85.6956 50° Northeast 457 526 35,000  Level Atlanta Center
Tue 07:54:24 PM 32.8014 -85.5833 49° Northeast 447 514 35,000 -50 Level Atlanta Center
Tue 07:55:24 PM 32.8822 -85.4736 49° Northeast 447 514 34,900 -550 Descending Atlanta Center
Tue 07:56:24 PM 32.9647 -85.3633 48° Northeast 447 514 33,900 -950 Descending Atlanta Center
Tue 07:57:24 PM 33.0453 -85.2506 50° Northeast 447 514 33,000 -450 Descending Atlanta Center
Tue 07:58:24 PM 33.1319 -85.1303 49° Northeast 447 514 33,000  Level Atlanta Center
Tue 07:59:24 PM 33.2142 -85.0172 49° Northeast 447 514 33,000  Level Atlanta Center
Tue 08:00:24 PM 33.2967 -84.9036 49° Northeast 453 521 33,000  Level Atlanta Center
Tue 08:01:24 PM 33.3767 -84.7875 50° Northeast 453 521 33,000  Level Atlanta Center
Tue 08:02:24 PM 33.4586 -84.6764 49° Northeast 453 521 33,000  Level Atlanta Center
Tue 08:03:24 PM 33.5406 -84.5597 50° Northeast 453 521 33,000  Level Atlanta Center
Tue 08:04:24 PM 33.6078 -84.4553 52° Northeast 453 521 33,000  Level Atlanta Center
Tue 08:05:24 PM 33.6603 -84.3158 66° East 436 502 33,000  Level Atlanta Center
Tue 08:06:24 PM 33.7086 -84.1511 71° East 452 520 33,000  Level Atlanta Center
Tue 08:07:24 PM 33.7503 -84.0089 71° East 464 534 33,000  Level Atlanta Center
Tue 08:08:24 PM 33.7919 -83.8664 71° East 456 525 33,000  Level Atlanta Center
Tue 08:09:24 PM 33.8314 -83.7186 72° East 456 525 33,000 -300 Level Atlanta Center
Tue 08:10:24 PM 33.8706 -83.5733 72° East 456 525 32,400 -700 Descending Atlanta Center
Tue 08:11:24 PM 33.9075 -83.4406 71° East 456 525 31,600 -900 Descending Atlanta Center
Tue 08:12:24 PM 33.9506 -83.2950 70° East 456 525 30,600 -1,000 Descending Atlanta Center
Tue 08:13:24 PM 33.9872 -83.1419 74° East 467 537 29,600 -1,000 Descending Atlanta Center
Tue 08:14:24 PM 34.0278 -82.9911 72° East 467 537 28,600 -1,000 Descending Atlanta Center
Tue 08:15:24 PM 34.0703 -82.8450 71° East 461 531 27,600 -950 Descending Atlanta Center
Tue 08:16:24 PM 34.1083 -82.6942 73° East 461 531 26,700 -900 Descending Atlanta Center
Tue 08:17:24 PM 34.1483 -82.5453 72° East 461 531 25,800 -1,050 Descending Atlanta Center
Tue 08:18:24 PM 34.1986 -82.4039 67° East 461 531 24,600 -950 Descending Atlanta Center
Tue 08:19:24 PM 34.2722 -82.2817 54° Northeast 451 519 23,900 -900 Descending Atlanta Center
Tue 08:20:24 PM 34.3497 -82.1619 52° Northeast 451 519 22,800 -1,650 Descending Atlanta Center
Tue 08:21:24 PM 34.4189 -82.0494 53° Northeast 436 502 20,600 -2,100 Descending Atlanta Center
Tue 08:22:24 PM 34.4819 -81.9472 53° Northeast 405 466 18,600 -1,950 Descending Atlanta Center
Tue 08:23:24 PM 34.5428 -81.8525 52° Northeast 369 425 16,700 -1,950 Descending Atlanta Center
Tue 08:24:24 PM 34.5994 -81.7575 54° Northeast 355 409 14,700 -2,278 Descending Atlanta Center
Tue 08:24:43 PM 34.6258 -81.7164 52° Northeast 346 398 13,700 -2,200 Descending Atlanta Center
Tue 08:25:24 PM 34.6622 -81.6575 53° Northeast 343 395 12,500 -1,592 Descending Atlanta Center
Tue 08:26:21 PM 34.7169 -81.5700 53° Northeast 333 383 11,100 -814 Descending Atlanta Center
Tue 08:27:22 PM 34.7739 -81.4950 47° Northeast 300 345 10,900 -634 Descending Atlanta Center
Tue 08:28:24 PM 34.7867 -81.4136 79° East 255 293 9,800 -1,328 Descending Atlanta Center
Tue 08:29:24 PM 34.7458 -81.3517 129° Southeast 251 289 8,200 -1,350 Descending Atlanta Center
Tue 08:30:24 PM 34.7047 -81.2947 131° Southeast 223 257 7,100 -600 Descending Atlanta Center
Tue 08:31:24 PM 34.7031 -81.2192 92° East 215 247 7,000 -50 Descending Atlanta Center
Tue 08:32:24 PM 34.7078 -81.1508 85° East 198 228 7,000  Level Atlanta Center
Tue 08:33:28 PM 34.7122 -81.0747 86° East 204 235 7,000  Level Atlanta Center
Tue 08:34:24 PM 34.7150 -81.0139 87° East 198 228 7,000 -49 Level Atlanta Center
Tue 08:35:30 PM 34.7425 -80.9472 63° Northeast 207 238 6,900 -397 Descending Atlanta Center
Tue 08:36:25 PM 34.7922 -80.9328 13° North 194 223 6,200 -787 Descending Atlanta Center
Tue 08:37:32 PM 34.8508 -80.9358 358° North 191 220 5,300 -621 Descending Atlanta Center
Tue 08:38:21 PM 34.8947 -80.9417 354° North 190 219 5,000 -148 Descending Atlanta Center
Tue 08:39:34 PM 34.9594 -80.9494 354° North 191 220 5,000  Level Atlanta Center

Login

Don't have an account? Register now (free) for customized features, flight alerts, and more!